sensor_id;sensor_type;location;lat;lon;timestamp;temperature;humidity
16736;DHT22;17990;49.548;9.730;2023-06-22T00:01:13;18.80;99.90
16736;DHT22;17990;49.548;9.730;2023-06-22T00:03:39;18.80;99.90
16736;DHT22;17990;49.548;9.730;2023-06-22T00:06:06;18.80;99.90
16736;DHT22;17990;49.548;9.730;2023-06-22T00:08:33;18.80;99.90
16736;DHT22;17990;49.548;9.730;2023-06-22T00:11:01;18.80;99.90
16736;DHT22;17990;49.548;9.730;2023-06-22T00:13:28;18.80;99.90
16736;DHT22;17990;49.548;9.730;2023-06-22T00:15:55;18.90;99.90
16736;DHT22;17990;49.548;9.730;2023-06-22T00:18:22;18.90;99.90
16736;DHT22;17990;49.548;9.730;2023-06-22T00:20:54;19.00;99.90
16736;DHT22;17990;49.548;9.730;2023-06-22T00:23:23;19.10;99.90
16736;DHT22;17990;49.548;9.730;2023-06-22T00:25:50;19.00;99.90
16736;DHT22;17990;49.548;9.730;2023-06-22T00:28:19;19.10;99.90
16736;DHT22;17990;49.548;9.730;2023-06-22T00:30:46;19.10;99.90
16736;DHT22;17990;49.548;9.730;2023-06-22T00:33:14;19.00;99.90
16736;DHT22;17990;49.548;9.730;2023-06-22T00:35:41;18.90;99.90
16736;DHT22;17990;49.548;9.730;2023-06-22T00:38:08;18.80;99.90
16736;DHT22;17990;49.548;9.730;2023-06-22T00:40:35;18.70;99.90
16736;DHT22;17990;49.548;9.730;2023-06-22T00:43:02;18.70;99.90
16736;DHT22;17990;49.548;9.730;2023-06-22T00:45:31;18.80;99.90
16736;DHT22;17990;49.548;9.730;2023-06-22T00:47:58;18.80;99.90
16736;DHT22;17990;49.548;9.730;2023-06-22T00:50:28;18.80;99.90
16736;DHT22;17990;49.548;9.730;2023-06-22T00:53:00;18.70;99.90
16736;DHT22;17990;49.548;9.730;2023-06-22T00:55:30;18.70;99.90
16736;DHT22;17990;49.548;9.730;2023-06-22T00:57:57;18.70;99.90
16736;DHT22;17990;49.548;9.730;2023-06-22T01:00:24;18.60;99.90
16736;DHT22;17990;49.548;9.730;2023-06-22T01:02:53;18.70;99.90
16736;DHT22;17990;49.548;9.730;2023-06-22T01:05:20;18.70;99.90
16736;DHT22;17990;49.548;9.730;2023-06-22T01:08:04;18.70;99.90
16736;DHT22;17990;49.548;9.730;2023-06-22T01:10:41;18.60;99.90
16736;DHT22;17990;49.548;9.730;2023-06-22T01:13:18;18.50;99.90
16736;DHT22;17990;49.548;9.730;2023-06-22T01:15:53;18.40;99.90
16736;DHT22;17990;49.548;9.730;2023-06-22T01:18:24;18.40;99.90
16736;DHT22;17990;49.548;9.730;2023-06-22T01:20:53;18.30;99.90
16736;DHT22;17990;49.548;9.730;2023-06-22T01:23:29;18.40;99.90
16736;DHT22;17990;49.548;9.730;2023-06-22T01:26:06;18.40;99.90
16736;DHT22;17990;49.548;9.730;2023-06-22T01:28:47;18.40;99.90
16736;DHT22;17990;49.548;9.730;2023-06-22T01:31:17;18.50;99.90
16736;DHT22;17990;49.548;9.730;2023-06-22T01:33:48;18.60;99.90
16736;DHT22;17990;49.548;9.730;2023-06-22T01:36:18;18.60;99.90
16736;DHT22;17990;49.548;9.730;2023-06-22T01:38:47;18.70;99.90
16736;DHT22;17990;49.548;9.730;2023-06-22T01:41:15;18.70;99.90
16736;DHT22;17990;49.548;9.730;2023-06-22T01:43:43;18.70;99.90
16736;DHT22;17990;49.548;9.730;2023-06-22T01:46:12;18.80;99.90
16736;DHT22;17990;49.548;9.730;2023-06-22T01:48:39;18.80;99.90
16736;DHT22;17990;49.548;9.730;2023-06-22T01:51:06;18.80;99.90
16736;DHT22;17990;49.548;9.730;2023-06-22T01:53:33;18.80;99.90
16736;DHT22;17990;49.548;9.730;2023-06-22T01:56:00;18.80;99.90
16736;DHT22;17990;49.548;9.730;2023-06-22T01:58:29;18.50;99.90
16736;DHT22;17990;49.548;9.730;2023-06-22T02:01:00;18.20;99.90
16736;DHT22;17990;49.548;9.730;2023-06-22T02:03:34;18.20;99.90
16736;DHT22;17990;49.548;9.730;2023-06-22T02:06:06;18.30;99.90
16736;DHT22;17990;49.548;9.730;2023-06-22T02:08:51;18.40;99.90
16736;DHT22;17990;49.548;9.730;2023-06-22T02:11:21;18.40;99.90
16736;DHT22;17990;49.548;9.730;2023-06-22T02:13:49;18.40;99.90
16736;DHT22;17990;49.548;9.730;2023-06-22T02:16:17;18.50;99.90
16736;DHT22;17990;49.548;9.730;2023-06-22T02:18:47;18.50;99.90
16736;DHT22;17990;49.548;9.730;2023-06-22T02:21:16;18.40;99.90
16736;DHT22;17990;49.548;9.730;2023-06-22T02:23:43;18.40;99.90
16736;DHT22;17990;49.548;9.730;2023-06-22T02:26:10;18.30;99.90
16736;DHT22;17990;49.548;9.730;2023-06-22T02:28:37;18.30;99.90
16736;DHT22;17990;49.548;9.730;2023-06-22T02:31:03;18.40;99.90
16736;DHT22;17990;49.548;9.730;2023-06-22T02:33:30;18.40;99.90
16736;DHT22;17990;49.548;9.730;2023-06-22T02:35:59;18.40;99.90
16736;DHT22;17990;49.548;9.730;2023-06-22T02:38:25;18.50;99.90
16736;DHT22;17990;49.548;9.730;2023-06-22T02:40:52;18.50;99.90
16736;DHT22;17990;49.548;9.730;2023-06-22T02:43:19;18.60;99.90
16736;DHT22;17990;49.548;9.730;2023-06-22T02:45:46;18.70;99.90
16736;DHT22;17990;49.548;9.730;2023-06-22T02:48:13;18.80;99.90
16736;DHT22;17990;49.548;9.730;2023-06-22T02:50:40;18.90;99.90
16736;DHT22;17990;49.548;9.730;2023-06-22T02:53:08;19.00;99.90
16736;DHT22;17990;49.548;9.730;2023-06-22T02:55:35;19.00;99.90
16736;DHT22;17990;49.548;9.730;2023-06-22T02:58:01;19.10;99.90
16736;DHT22;17990;49.548;9.730;2023-06-22T03:00:30;19.10;99.90
16736;DHT22;17990;49.548;9.730;2023-06-22T03:02:57;19.10;99.90
16736;DHT22;17990;49.548;9.730;2023-06-22T03:05:24;18.90;99.90
16736;DHT22;17990;49.548;9.730;2023-06-22T03:07:51;18.80;99.90
16736;DHT22;17990;49.548;9.730;2023-06-22T03:10:19;18.70;99.90
16736;DHT22;17990;49.548;9.730;2023-06-22T03:12:47;18.60;99.90
16736;DHT22;17990;49.548;9.730;2023-06-22T03:15:14;18.50;99.90
16736;DHT22;17990;49.548;9.730;2023-06-22T03:17:42;18.50;99.90
16736;DHT22;17990;49.548;9.730;2023-06-22T03:20:10;18.50;99.90
16736;DHT22;17990;49.548;9.730;2023-06-22T03:22:37;18.40;99.90
16736;DHT22;17990;49.548;9.730;2023-06-22T03:25:06;18.50;99.90
16736;DHT22;17990;49.548;9.730;2023-06-22T03:27:39;18.50;99.90
16736;DHT22;17990;49.548;9.730;2023-06-22T03:30:08;18.40;99.90
16736;DHT22;17990;49.548;9.730;2023-06-22T03:32:37;18.40;99.90
16736;DHT22;17990;49.548;9.730;2023-06-22T03:35:04;18.40;99.90
16736;DHT22;17990;49.548;9.730;2023-06-22T03:37:32;18.50;99.90
16736;DHT22;17990;49.548;9.730;2023-06-22T03:39:59;18.50;99.90
16736;DHT22;17990;49.548;9.730;2023-06-22T03:42:26;18.60;99.90
16736;DHT22;17990;49.548;9.730;2023-06-22T03:44:54;18.70;99.90
16736;DHT22;17990;49.548;9.730;2023-06-22T03:47:21;18.80;99.90
16736;DHT22;17990;49.548;9.730;2023-06-22T03:49:48;18.80;99.90
16736;DHT22;17990;49.548;9.730;2023-06-22T03:52:15;18.90;99.90
16736;DHT22;17990;49.548;9.730;2023-06-22T03:54:42;19.00;99.90
16736;DHT22;17990;49.548;9.730;2023-06-22T03:57:09;19.10;99.90
16736;DHT22;17990;49.548;9.730;2023-06-22T03:59:36;19.00;99.90
16736;DHT22;17990;49.548;9.730;2023-06-22T04:02:05;18.90;99.90
16736;DHT22;17990;49.548;9.730;2023-06-22T04:04:31;19.00;99.90
16736;DHT22;17990;49.548;9.730;2023-06-22T04:06:59;19.00;99.90
16736;DHT22;17990;49.548;9.730;2023-06-22T04:09:26;19.10;99.90
16736;DHT22;17990;49.548;9.730;2023-06-22T04:11:52;19.10;99.90
16736;DHT22;17990;49.548;9.730;2023-06-22T04:14:19;19.10;99.90
16736;DHT22;17990;49.548;9.730;2023-06-22T04:16:46;19.20;99.90
16736;DHT22;17990;49.548;9.730;2023-06-22T04:19:14;19.30;99.90
16736;DHT22;17990;49.548;9.730;2023-06-22T04:21:43;19.40;99.90
16736;DHT22;17990;49.548;9.730;2023-06-22T04:24:10;19.40;99.90
16736;DHT22;17990;49.548;9.730;2023-06-22T04:26:37;19.40;99.90
16736;DHT22;17990;49.548;9.730;2023-06-22T04:29:07;19.40;99.90
16736;DHT22;17990;49.548;9.730;2023-06-22T04:31:35;19.50;99.90
16736;DHT22;17990;49.548;9.730;2023-06-22T04:34:03;19.50;99.90
16736;DHT22;17990;49.548;9.730;2023-06-22T04:36:35;19.50;99.90
16736;DHT22;17990;49.548;9.730;2023-06-22T04:39:05;19.60;99.90
16736;DHT22;17990;49.548;9.730;2023-06-22T04:41:35;19.60;99.90
16736;DHT22;17990;49.548;9.730;2023-06-22T04:44:08;19.70;99.90
16736;DHT22;17990;49.548;9.730;2023-06-22T04:46:36;19.80;99.90
16736;DHT22;17990;49.548;9.730;2023-06-22T04:49:05;19.90;99.90
16736;DHT22;17990;49.548;9.730;2023-06-22T04:51:37;20.00;99.90
16736;DHT22;17990;49.548;9.730;2023-06-22T04:54:05;20.10;99.90
16736;DHT22;17990;49.548;9.730;2023-06-22T04:56:32;20.20;99.90
16736;DHT22;17990;49.548;9.730;2023-06-22T04:59:00;20.20;99.90
16736;DHT22;17990;49.548;9.730;2023-06-22T05:01:28;20.40;99.90
16736;DHT22;17990;49.548;9.730;2023-06-22T05:03:56;20.50;99.90
16736;DHT22;17990;49.548;9.730;2023-06-22T05:06:26;20.70;99.90
16736;DHT22;17990;49.548;9.730;2023-06-22T05:08:55;20.90;99.90
16736;DHT22;17990;49.548;9.730;2023-06-22T05:11:24;21.10;99.90
16736;DHT22;17990;49.548;9.730;2023-06-22T05:13:51;21.30;99.90
16736;DHT22;17990;49.548;9.730;2023-06-22T05:16:18;21.50;99.90
16736;DHT22;17990;49.548;9.730;2023-06-22T05:18:50;21.80;99.90
16736;DHT22;17990;49.548;9.730;2023-06-22T05:21:20;23.30;99.90
16736;DHT22;17990;49.548;9.730;2023-06-22T05:23:48;24.90;99.90
16736;DHT22;17990;49.548;9.730;2023-06-22T05:26:16;26.20;99.90
16736;DHT22;17990;49.548;9.730;2023-06-22T05:28:43;26.90;99.90
16736;DHT22;17990;49.548;9.730;2023-06-22T05:31:12;27.70;99.90
16736;DHT22;17990;49.548;9.730;2023-06-22T05:33:39;28.30;99.90
16736;DHT22;17990;49.548;9.730;2023-06-22T05:36:06;28.90;99.90
16736;DHT22;17990;49.548;9.730;2023-06-22T05:38:33;29.50;99.90
16736;DHT22;17990;49.548;9.730;2023-06-22T05:41:01;29.90;99.90
16736;DHT22;17990;49.548;9.730;2023-06-22T05:43:29;30.40;99.90
16736;DHT22;17990;49.548;9.730;2023-06-22T05:45:56;30.90;99.90
16736;DHT22;17990;49.548;9.730;2023-06-22T05:48:23;31.50;99.90
16736;DHT22;17990;49.548;9.730;2023-06-22T05:50:50;31.90;99.90
16736;DHT22;17990;49.548;9.730;2023-06-22T05:53:17;32.00;99.90
16736;DHT22;17990;49.548;9.730;2023-06-22T05:55:43;32.60;99.90
16736;DHT22;17990;49.548;9.730;2023-06-22T05:58:10;33.00;99.90
16736;DHT22;17990;49.548;9.730;2023-06-22T06:00:40;33.40;99.90
16736;DHT22;17990;49.548;9.730;2023-06-22T06:03:07;34.10;99.90
16736;DHT22;17990;49.548;9.730;2023-06-22T06:05:35;34.30;98.80
16736;DHT22;17990;49.548;9.730;2023-06-22T06:08:04;34.70;97.40
16736;DHT22;17990;49.548;9.730;2023-06-22T06:10:33;35.00;96.60
16736;DHT22;17990;49.548;9.730;2023-06-22T06:13:00;35.10;95.60
16736;DHT22;17990;49.548;9.730;2023-06-22T06:15:29;34.80;95.30
16736;DHT22;17990;49.548;9.730;2023-06-22T06:17:59;35.40;94.60
16736;DHT22;17990;49.548;9.730;2023-06-22T06:20:26;35.00;94.20
16736;DHT22;17990;49.548;9.730;2023-06-22T06:22:54;35.20;93.80
16736;DHT22;17990;49.548;9.730;2023-06-22T06:25:21;35.70;92.80
16736;DHT22;17990;49.548;9.730;2023-06-22T06:27:49;36.30;91.10
16736;DHT22;17990;49.548;9.730;2023-06-22T06:30:18;37.40;90.20
16736;DHT22;17990;49.548;9.730;2023-06-22T06:32:46;37.10;87.90
16736;DHT22;17990;49.548;9.730;2023-06-22T06:35:15;37.30;85.70
16736;DHT22;17990;49.548;9.730;2023-06-22T06:37:43;34.90;90.20
16736;DHT22;17990;49.548;9.730;2023-06-22T06:40:12;34.30;91.30
16736;DHT22;17990;49.548;9.730;2023-06-22T06:42:41;33.80;91.50
16736;DHT22;17990;49.548;9.730;2023-06-22T06:45:11;34.80;90.90
16736;DHT22;17990;49.548;9.730;2023-06-22T06:47:38;35.70;89.70
16736;DHT22;17990;49.548;9.730;2023-06-22T06:50:06;36.40;86.80
16736;DHT22;17990;49.548;9.730;2023-06-22T06:52:35;37.70;83.00
16736;DHT22;17990;49.548;9.730;2023-06-22T06:55:03;38.70;79.60
16736;DHT22;17990;49.548;9.730;2023-06-22T06:57:33;39.30;78.00
16736;DHT22;17990;49.548;9.730;2023-06-22T07:00:00;38.00;79.40
16736;DHT22;17990;49.548;9.730;2023-06-22T07:02:31;38.30;78.60
16736;DHT22;17990;49.548;9.730;2023-06-22T07:04:58;39.30;76.70
16736;DHT22;17990;49.548;9.730;2023-06-22T07:07:25;39.50;74.40
16736;DHT22;17990;49.548;9.730;2023-06-22T07:09:53;38.60;76.20
16736;DHT22;17990;49.548;9.730;2023-06-22T07:12:20;37.70;77.00
16736;DHT22;17990;49.548;9.730;2023-06-22T07:14:47;38.30;76.60
16736;DHT22;17990;49.548;9.730;2023-06-22T07:17:14;38.10;75.80
16736;DHT22;17990;49.548;9.730;2023-06-22T07:19:41;37.60;76.30
16736;DHT22;17990;49.548;9.730;2023-06-22T07:22:08;37.70;76.00
16736;DHT22;17990;49.548;9.730;2023-06-22T07:24:35;38.20;76.60
16736;DHT22;17990;49.548;9.730;2023-06-22T07:27:04;38.90;75.00
16736;DHT22;17990;49.548;9.730;2023-06-22T07:29:32;38.20;75.10
16736;DHT22;17990;49.548;9.730;2023-06-22T07:31:59;38.40;74.90
16736;DHT22;17990;49.548;9.730;2023-06-22T07:34:26;39.10;73.20
16736;DHT22;17990;49.548;9.730;2023-06-22T07:36:53;39.20;72.70
16736;DHT22;17990;49.548;9.730;2023-06-22T07:39:19;38.30;74.30
16736;DHT22;17990;49.548;9.730;2023-06-22T07:41:51;39.20;72.50
16736;DHT22;17990;49.548;9.730;2023-06-22T07:44:19;39.00;71.80
16736;DHT22;17990;49.548;9.730;2023-06-22T07:46:46;39.70;71.10
16736;DHT22;17990;49.548;9.730;2023-06-22T07:49:13;39.00;72.50
16736;DHT22;17990;49.548;9.730;2023-06-22T07:51:40;38.40;73.20
16736;DHT22;17990;49.548;9.730;2023-06-22T07:54:06;39.50;71.70
16736;DHT22;17990;49.548;9.730;2023-06-22T07:56:33;40.50;69.10
16736;DHT22;17990;49.548;9.730;2023-06-22T07:59:00;40.80;68.20
16736;DHT22;17990;49.548;9.730;2023-06-22T08:01:30;40.20;67.50
16736;DHT22;17990;49.548;9.730;2023-06-22T08:03:57;40.10;68.70
16736;DHT22;17990;49.548;9.730;2023-06-22T08:06:24;39.70;68.50
16736;DHT22;17990;49.548;9.730;2023-06-22T08:08:50;40.10;67.90
16736;DHT22;17990;49.548;9.730;2023-06-22T08:11:19;40.00;68.40
16736;DHT22;17990;49.548;9.730;2023-06-22T08:13:47;39.70;69.30
16736;DHT22;17990;49.548;9.730;2023-06-22T08:16:15;37.60;72.60
16736;DHT22;17990;49.548;9.730;2023-06-22T08:18:43;37.90;73.80
16736;DHT22;17990;49.548;9.730;2023-06-22T08:21:10;38.60;72.00
16736;DHT22;17990;49.548;9.730;2023-06-22T08:23:37;38.90;70.90
16736;DHT22;17990;49.548;9.730;2023-06-22T08:26:04;38.70;72.10
16736;DHT22;17990;49.548;9.730;2023-06-22T08:28:31;38.10;73.10
16736;DHT22;17990;49.548;9.730;2023-06-22T08:31:00;37.30;72.90
16736;DHT22;17990;49.548;9.730;2023-06-22T08:33:28;36.50;73.50
16736;DHT22;17990;49.548;9.730;2023-06-22T08:35:58;36.80;74.90
16736;DHT22;17990;49.548;9.730;2023-06-22T08:38:25;37.50;74.40
16736;DHT22;17990;49.548;9.730;2023-06-22T08:40:52;36.90;75.60
16736;DHT22;17990;49.548;9.730;2023-06-22T08:43:18;36.30;76.80
16736;DHT22;17990;49.548;9.730;2023-06-22T08:45:45;35.40;79.20
16736;DHT22;17990;49.548;9.730;2023-06-22T08:48:12;34.80;80.90
16736;DHT22;17990;49.548;9.730;2023-06-22T08:50:39;35.00;80.40
16736;DHT22;17990;49.548;9.730;2023-06-22T08:53:08;34.50;81.10
16736;DHT22;17990;49.548;9.730;2023-06-22T08:55:35;35.00;79.30
16736;DHT22;17990;49.548;9.730;2023-06-22T08:58:01;35.60;78.00
16736;DHT22;17990;49.548;9.730;2023-06-22T09:00:29;35.70;78.10
16736;DHT22;17990;49.548;9.730;2023-06-22T09:02:58;35.50;78.20
16736;DHT22;17990;49.548;9.730;2023-06-22T09:05:25;34.80;79.50
16736;DHT22;17990;49.548;9.730;2023-06-22T09:07:52;34.20;81.20
16736;DHT22;17990;49.548;9.730;2023-06-22T09:10:21;33.40;82.80
16736;DHT22;17990;49.548;9.730;2023-06-22T09:12:48;32.60;85.00
16736;DHT22;17990;49.548;9.730;2023-06-22T09:15:15;33.30;84.00
16736;DHT22;17990;49.548;9.730;2023-06-22T09:17:42;33.70;81.50
16736;DHT22;17990;49.548;9.730;2023-06-22T09:20:09;33.80;82.70
16736;DHT22;17990;49.548;9.730;2023-06-22T09:22:37;34.10;82.10
16736;DHT22;17990;49.548;9.730;2023-06-22T09:25:04;34.10;81.70
16736;DHT22;17990;49.548;9.730;2023-06-22T09:27:34;33.10;83.80
16736;DHT22;17990;49.548;9.730;2023-06-22T09:30:01;33.60;82.80
16736;DHT22;17990;49.548;9.730;2023-06-22T09:32:29;34.20;81.00
16736;DHT22;17990;49.548;9.730;2023-06-22T09:34:56;34.40;80.60
16736;DHT22;17990;49.548;9.730;2023-06-22T09:37:22;33.80;81.50
16736;DHT22;17990;49.548;9.730;2023-06-22T09:39:49;32.80;84.40
16736;DHT22;17990;49.548;9.730;2023-06-22T09:42:16;32.60;85.80
16736;DHT22;17990;49.548;9.730;2023-06-22T09:44:44;32.00;86.80
16736;DHT22;17990;49.548;9.730;2023-06-22T09:47:11;31.50;88.40
16736;DHT22;17990;49.548;9.730;2023-06-22T09:49:38;31.50;88.50
16736;DHT22;17990;49.548;9.730;2023-06-22T09:52:05;31.50;88.10
16736;DHT22;17990;49.548;9.730;2023-06-22T09:54:33;31.70;87.90
16736;DHT22;17990;49.548;9.730;2023-06-22T09:57:00;31.30;88.40
16736;DHT22;17990;49.548;9.730;2023-06-22T09:59:26;30.90;89.70
16736;DHT22;17990;49.548;9.730;2023-06-22T10:01:55;31.00;89.30
16736;DHT22;17990;49.548;9.730;2023-06-22T10:04:21;31.50;88.00
16736;DHT22;17990;49.548;9.730;2023-06-22T10:06:50;32.30;86.20
16736;DHT22;17990;49.548;9.730;2023-06-22T10:09:16;32.90;85.20
16736;DHT22;17990;49.548;9.730;2023-06-22T10:11:43;32.40;86.00
16736;DHT22;17990;49.548;9.730;2023-06-22T10:14:10;32.00;86.90
16736;DHT22;17990;49.548;9.730;2023-06-22T10:16:37;31.90;86.80
16736;DHT22;17990;49.548;9.730;2023-06-22T10:19:05;32.70;84.80
16736;DHT22;17990;49.548;9.730;2023-06-22T10:21:32;33.40;83.30
16736;DHT22;17990;49.548;9.730;2023-06-22T10:24:00;33.20;83.10
16736;DHT22;17990;49.548;9.730;2023-06-22T10:26:31;32.80;84.70
16736;DHT22;17990;49.548;9.730;2023-06-22T10:28:58;32.30;86.70
16736;DHT22;17990;49.548;9.730;2023-06-22T10:31:25;31.90;87.50
16736;DHT22;17990;49.548;9.730;2023-06-22T10:33:53;32.10;86.90
16736;DHT22;17990;49.548;9.730;2023-06-22T10:36:21;32.10;86.40
16736;DHT22;17990;49.548;9.730;2023-06-22T10:38:49;32.10;86.70
16736;DHT22;17990;49.548;9.730;2023-06-22T10:41:15;32.30;86.60
16736;DHT22;17990;49.548;9.730;2023-06-22T10:43:42;32.20;86.20
16736;DHT22;17990;49.548;9.730;2023-06-22T10:46:09;32.00;86.00
16736;DHT22;17990;49.548;9.730;2023-06-22T10:48:36;31.80;87.50
16736;DHT22;17990;49.548;9.730;2023-06-22T10:51:03;32.00;87.20
16736;DHT22;17990;49.548;9.730;2023-06-22T10:53:32;32.20;86.60
16736;DHT22;17990;49.548;9.730;2023-06-22T10:55:59;32.40;85.00
16736;DHT22;17990;49.548;9.730;2023-06-22T10:58:25;32.20;85.20
16736;DHT22;17990;49.548;9.730;2023-06-22T11:00:52;32.00;86.20
16736;DHT22;17990;49.548;9.730;2023-06-22T11:03:19;31.80;86.50
16736;DHT22;17990;49.548;9.730;2023-06-22T11:05:46;32.00;86.30
16736;DHT22;17990;49.548;9.730;2023-06-22T11:08:13;32.20;86.30
16736;DHT22;17990;49.548;9.730;2023-06-22T11:10:41;32.40;82.70
16736;DHT22;17990;49.548;9.730;2023-06-22T11:13:09;32.90;79.30
16736;DHT22;17990;49.548;9.730;2023-06-22T11:15:36;33.20;77.20
16736;DHT22;17990;49.548;9.730;2023-06-22T11:18:03;33.50;77.00
16736;DHT22;17990;49.548;9.730;2023-06-22T11:20:33;33.40;76.80
16736;DHT22;17990;49.548;9.730;2023-06-22T11:23:03;33.70;76.70
16736;DHT22;17990;49.548;9.730;2023-06-22T11:25:30;33.90;76.10
16736;DHT22;17990;49.548;9.730;2023-06-22T11:27:59;34.20;75.50
16736;DHT22;17990;49.548;9.730;2023-06-22T11:30:25;34.20;75.40
16736;DHT22;17990;49.548;9.730;2023-06-22T11:32:52;34.20;75.80
16736;DHT22;17990;49.548;9.730;2023-06-22T11:35:19;34.30;75.80
16736;DHT22;17990;49.548;9.730;2023-06-22T11:37:46;34.50;75.50
16736;DHT22;17990;49.548;9.730;2023-06-22T11:40:13;34.80;75.00
16736;DHT22;17990;49.548;9.730;2023-06-22T11:42:40;35.20;73.80
16736;DHT22;17990;49.548;9.730;2023-06-22T11:45:08;34.80;73.60
16736;DHT22;17990;49.548;9.730;2023-06-22T11:47:36;34.80;74.50
16736;DHT22;17990;49.548;9.730;2023-06-22T11:50:03;34.90;74.30
16736;DHT22;17990;49.548;9.730;2023-06-22T11:52:31;34.80;75.20
16736;DHT22;17990;49.548;9.730;2023-06-22T11:54:58;34.70;73.90
16736;DHT22;17990;49.548;9.730;2023-06-22T11:57:25;34.60;72.50
16736;DHT22;17990;49.548;9.730;2023-06-22T11:59:52;34.90;73.00
16736;DHT22;17990;49.548;9.730;2023-06-22T12:02:20;35.40;71.80
16736;DHT22;17990;49.548;9.730;2023-06-22T12:04:47;35.90;70.00
16736;DHT22;17990;49.548;9.730;2023-06-22T12:07:14;35.90;68.90
16736;DHT22;17990;49.548;9.730;2023-06-22T12:09:41;35.70;68.90
16736;DHT22;17990;49.548;9.730;2023-06-22T12:12:08;35.80;69.50
16736;DHT22;17990;49.548;9.730;2023-06-22T12:14:35;35.70;70.50
16736;DHT22;17990;49.548;9.730;2023-06-22T12:17:02;35.50;71.10
16736;DHT22;17990;49.548;9.730;2023-06-22T12:19:30;35.40;71.90
16736;DHT22;17990;49.548;9.730;2023-06-22T12:21:57;35.30;72.80
16736;DHT22;17990;49.548;9.730;2023-06-22T12:24:24;35.30;73.00
16736;DHT22;17990;49.548;9.730;2023-06-22T12:26:51;35.00;73.30
16736;DHT22;17990;49.548;9.730;2023-06-22T12:29:18;35.20;72.70
16736;DHT22;17990;49.548;9.730;2023-06-22T12:31:45;35.00;73.10
16736;DHT22;17990;49.548;9.730;2023-06-22T12:34:11;35.10;73.60
16736;DHT22;17990;49.548;9.730;2023-06-22T12:36:40;35.30;73.50
16736;DHT22;17990;49.548;9.730;2023-06-22T12:39:07;35.00;74.40
16736;DHT22;17990;49.548;9.730;2023-06-22T12:41:33;34.80;74.90
16736;DHT22;17990;49.548;9.730;2023-06-22T12:44:00;34.80;74.50
16736;DHT22;17990;49.548;9.730;2023-06-22T12:46:27;34.40;74.40
16736;DHT22;17990;49.548;9.730;2023-06-22T12:48:55;34.30;75.20
16736;DHT22;17990;49.548;9.730;2023-06-22T12:51:22;34.60;74.50
16736;DHT22;17990;49.548;9.730;2023-06-22T12:53:51;34.80;74.30
16736;DHT22;17990;49.548;9.730;2023-06-22T12:56:17;35.20;73.40
16736;DHT22;17990;49.548;9.730;2023-06-22T12:58:44;35.50;72.80
16736;DHT22;17990;49.548;9.730;2023-06-22T13:01:11;35.50;72.70
16736;DHT22;17990;49.548;9.730;2023-06-22T13:03:38;35.40;71.90
16736;DHT22;17990;49.548;9.730;2023-06-22T13:06:05;35.60;73.10
16736;DHT22;17990;49.548;9.730;2023-06-22T13:08:32;35.60;73.10
16736;DHT22;17990;49.548;9.730;2023-06-22T13:11:00;35.40;71.90
16736;DHT22;17990;49.548;9.730;2023-06-22T13:13:26;35.00;72.20
16736;DHT22;17990;49.548;9.730;2023-06-22T13:15:53;34.80;72.80
16736;DHT22;17990;49.548;9.730;2023-06-22T13:18:20;34.60;73.70
16736;DHT22;17990;49.548;9.730;2023-06-22T13:20:47;34.40;74.30
16736;DHT22;17990;49.548;9.730;2023-06-22T13:23:14;34.50;74.40
16736;DHT22;17990;49.548;9.730;2023-06-22T13:25:41;34.80;76.20
16736;DHT22;17990;49.548;9.730;2023-06-22T13:28:09;35.20;76.30
16736;DHT22;17990;49.548;9.730;2023-06-22T13:30:37;35.30;76.50
16736;DHT22;17990;49.548;9.730;2023-06-22T13:33:04;35.50;75.60
16736;DHT22;17990;49.548;9.730;2023-06-22T13:35:31;35.60;75.50
16736;DHT22;17990;49.548;9.730;2023-06-22T13:37:58;36.00;74.50
16736;DHT22;17990;49.548;9.730;2023-06-22T13:40:25;36.10;73.00
16736;DHT22;17990;49.548;9.730;2023-06-22T13:42:51;36.10;73.30
16736;DHT22;17990;49.548;9.730;2023-06-22T13:45:20;35.90;73.50
16736;DHT22;17990;49.548;9.730;2023-06-22T13:47:46;35.70;72.90
16736;DHT22;17990;49.548;9.730;2023-06-22T13:50:13;35.50;73.10
16736;DHT22;17990;49.548;9.730;2023-06-22T13:52:40;35.40;73.50
16736;DHT22;17990;49.548;9.730;2023-06-22T13:55:08;35.40;74.00
16736;DHT22;17990;49.548;9.730;2023-06-22T13:57:35;35.50;73.90
16736;DHT22;17990;49.548;9.730;2023-06-22T14:00:03;35.40;74.30
16736;DHT22;17990;49.548;9.730;2023-06-22T14:02:33;35.30;73.70
16736;DHT22;17990;49.548;9.730;2023-06-22T14:05:00;35.20;73.40
16736;DHT22;17990;49.548;9.730;2023-06-22T14:07:27;35.40;73.60
16736;DHT22;17990;49.548;9.730;2023-06-22T14:09:54;35.50;73.40
16736;DHT22;17990;49.548;9.730;2023-06-22T14:12:21;35.70;70.30
16736;DHT22;17990;49.548;9.730;2023-06-22T14:14:48;35.70;75.90
16736;DHT22;17990;49.548;9.730;2023-06-22T14:17:15;35.70;75.20
16736;DHT22;17990;49.548;9.730;2023-06-22T14:19:43;35.70;74.60
16736;DHT22;17990;49.548;9.730;2023-06-22T14:22:10;35.90;73.80
16736;DHT22;17990;49.548;9.730;2023-06-22T14:24:37;36.00;73.30
16736;DHT22;17990;49.548;9.730;2023-06-22T14:27:04;35.40;72.40
16736;DHT22;17990;49.548;9.730;2023-06-22T14:29:34;35.60;71.20
16736;DHT22;17990;49.548;9.730;2023-06-22T14:32:00;36.00;72.10
16736;DHT22;17990;49.548;9.730;2023-06-22T14:34:27;36.00;70.00
16736;DHT22;17990;49.548;9.730;2023-06-22T14:36:55;36.00;68.30
16736;DHT22;17990;49.548;9.730;2023-06-22T14:39:22;36.10;69.20
16736;DHT22;17990;49.548;9.730;2023-06-22T14:41:49;36.40;68.90
16736;DHT22;17990;49.548;9.730;2023-06-22T14:44:16;36.50;68.70
16736;DHT22;17990;49.548;9.730;2023-06-22T14:46:43;36.90;67.50
16736;DHT22;17990;49.548;9.730;2023-06-22T14:49:10;37.20;65.70
16736;DHT22;17990;49.548;9.730;2023-06-22T14:51:36;37.30;63.00
16736;DHT22;17990;49.548;9.730;2023-06-22T14:54:05;37.20;62.70
16736;DHT22;17990;49.548;9.730;2023-06-22T14:56:32;36.60;62.30
16736;DHT22;17990;49.548;9.730;2023-06-22T14:58:58;36.20;62.60
16736;DHT22;17990;49.548;9.730;2023-06-22T15:01:25;36.20;62.70
16736;DHT22;17990;49.548;9.730;2023-06-22T15:03:52;36.40;62.80
16736;DHT22;17990;49.548;9.730;2023-06-22T15:06:19;36.30;63.20
16736;DHT22;17990;49.548;9.730;2023-06-22T15:08:46;36.20;63.90
16736;DHT22;17990;49.548;9.730;2023-06-22T15:11:14;36.10;62.20
16736;DHT22;17990;49.548;9.730;2023-06-22T15:13:42;36.10;61.80
16736;DHT22;17990;49.548;9.730;2023-06-22T15:16:09;35.80;62.10
16736;DHT22;17990;49.548;9.730;2023-06-22T15:18:36;36.10;62.90
16736;DHT22;17990;49.548;9.730;2023-06-22T15:21:04;36.20;63.10
16736;DHT22;17990;49.548;9.730;2023-06-22T15:23:32;36.30;60.20
16736;DHT22;17990;49.548;9.730;2023-06-22T15:26:02;36.00;61.10
16736;DHT22;17990;49.548;9.730;2023-06-22T15:28:32;35.60;62.50
16736;DHT22;17990;49.548;9.730;2023-06-22T15:31:00;35.30;62.90
16736;DHT22;17990;49.548;9.730;2023-06-22T15:33:27;35.20;63.50